LFSB/MLH METAR and TAF weather

Enter ICAO airport designator
Station Type Date Time Source
LFSB METAR 2020/07/11 16:30 UTC NOAA

LFSB 111630Z 36009KT CAVOK 23/07 Q1022 NOSIG


Station Type Date Time Source
LFSB Decoded METAR 2020/07/11 16:30 UTC NOAA

Bale-Mulhouse, France (LFSB) 47-36N 007-31E 271M
Jul 11, 2020 - 12:30 PM EDT / 2020.07.11 1630 UTC
Wind: from the N (360 degrees) at 10 MPH (9 KT):0
Visibility: greater than 7 mile(s):0
Temperature: 73 F (23 C)
Dew Point: 44 F (7 C)
Relative Humidity: 35%
Pressure (altimeter): 30.18 in. Hg (1022 hPa)
ob: LFSB 111630Z 36009KT CAVOK 23/07 Q1022 NOSIG
cycle: 16

Station Type Date Time Source
LFSB TAF 2020/07/11 12:21 UTC NOAA

TAF LFSB 111100Z 1112/1212 36010KT CAVOK
BECMG 1119/1121 29004KT

Example: see airport list